Time;durP1;ratioP1;P1;durP2;ratioP2;P2;SDS_P1;SDS_P2;PMS_P1;PMS_P2;Temp;Humidity;BMP_temperature;BMP_pressure;BME280_temperature;BME280_humidity;BME280_pressure;Samples;Min_cycle;Max_cycle;Signal;HPM_P1;HPM_P2
2021/12/10 00:00:31;;;;;;;22.83;11.90;;;15.40;64.60;;;;;;1989576;28;20178;-79
2021/12/10 00:01:35;;;;;;;26.27;13.05;;;15.40;64.40;;;;;;1989764;28;20505;-80
2021/12/10 00:02:35;;;;;;;23.20;12.00;;;15.50;65.00;;;;;;1989830;28;20257;-80
2021/12/10 00:03:54;;;;;;;23.13;11.68;;;15.50;65.30;;;;;;1989578;28;20182;-79
2021/12/10 00:04:53;;;;;;;23.25;11.50;;;15.50;65.00;;;;;;1989811;28;20269;-79
2021/12/10 00:05:58;;;;;;;23.37;12.00;;;15.50;64.70;;;;;;1989794;28;20170;-80
2021/12/10 00:07:01;;;;;;;27.63;12.50;;;15.50;65.10;;;;;;1990348;28;20193;-80
2021/12/10 00:08:00;;;;;;;19.67;12.35;;;15.40;65.20;;;;;;1990057;28;20666;-79
2021/12/10 00:09:09;;;;;;;25.92;11.48;;;15.50;65.30;;;;;;1989511;28;20225;-79
2021/12/10 00:10:15;;;;;;;21.77;12.85;;;15.40;65.50;;;;;;1989671;28;20163;-80
2021/12/10 00:11:25;;;;;;;27.65;13.35;;;15.40;65.50;;;;;;1990259;28;20237;-80
2021/12/10 00:12:32;;;;;;;25.58;12.00;;;15.40;65.70;;;;;;1990184;28;20159;-79
2021/12/10 00:13:31;;;;;;;28.05;12.48;;;15.40;65.70;;;;;;1990279;28;20155;-80
2021/12/10 00:14:32;;;;;;;22.20;11.17;;;15.40;65.90;;;;;;1981775;28;20180;-80
2021/12/10 00:15:32;;;;;;;20.48;11.57;;;15.40;65.70;;;;;;1981912;29;20163;-80
2021/12/10 00:16:32;;;;;;;23.40;11.20;;;15.40;65.60;;;;;;1990003;28;20194;-79
2021/12/10 00:17:32;;;;;;;25.95;12.55;;;15.40;65.90;;;;;;1989444;28;20166;-79
2021/12/10 00:18:35;;;;;;;28.92;13.43;;;15.40;66.00;;;;;;1989475;28;20178;-80
2021/12/10 00:19:41;;;;;;;23.48;11.52;;;15.40;66.20;;;;;;1989520;28;20229;-80
2021/12/10 00:20:41;;;;;;;25.50;11.13;;;15.40;66.30;;;;;;1989631;28;20262;-79
2021/12/10 00:21:41;;;;;;;19.35;11.02;;;15.40;66.30;;;;;;1990069;28;20290;-79
2021/12/10 00:22:49;;;;;;;24.88;13.15;;;15.40;65.80;;;;;;1990168;28;20576;-80
2021/12/10 00:23:51;;;;;;;22.15;12.30;;;15.40;66.50;;;;;;1990094;28;20163;-80
2021/12/10 00:24:51;;;;;;;22.17;11.00;;;15.40;66.60;;;;;;1990114;28;20532;-80
2021/12/10 00:25:51;;;;;;;22.17;11.85;;;15.40;66.60;;;;;;1989870;28;20266;-79
2021/12/10 00:26:50;;;;;;;20.40;11.20;;;15.30;66.60;;;;;;1989770;28;20217;-80
2021/12/10 00:27:52;;;;;;;19.93;11.60;;;15.30;66.80;;;;;;1989204;28;20170;-80
2021/12/10 00:28:52;;;;;;;24.13;12.25;;;15.30;66.60;;;;;;1989446;28;20433;-79
2021/12/10 00:29:50;;;;;;;23.83;11.05;;;15.30;66.60;;;;;;1989983;28;20266;-80
2021/12/10 00:31:43;;;;;;;26.23;11.03;;;15.30;66.90;;;;;;1990165;28;20186;-79
2021/12/10 00:32:58;;;;;;;29.08;12.00;;;15.30;67.00;;;;;;1989993;28;20158;-80
2021/12/10 00:34:18;;;;;;;21.85;10.57;;;15.30;66.90;;;;;;1989549;28;20488;-80
2021/12/10 00:35:21;;;;;;;25.77;12.65;;;15.30;66.90;;;;;;1979027;28;20221;-79
2021/12/10 00:36:21;;;;;;;29.92;13.48;;;15.30;67.10;;;;;;1989392;28;20218;-79
2021/12/10 00:37:23;;;;;;;36.95;13.02;;;15.30;67.40;;;;;;1990068;28;20174;-80
2021/12/10 00:38:23;;;;;;;27.95;13.32;;;15.30;67.50;;;;;;1990047;28;20613;-79
2021/12/10 00:39:25;;;;;;;24.50;11.40;;;15.30;67.60;;;;;;1990197;28;20175;-80
2021/12/10 00:40:26;;;;;;;24.05;12.77;;;15.30;67.70;;;;;;1989863;28;20503;-80
2021/12/10 00:41:25;;;;;;;27.38;12.98;;;15.50;68.10;;;;;;1989986;28;20193;-79
2021/12/10 00:42:29;;;;;;;21.27;11.73;;;15.30;67.80;;;;;;1989394;28;20693;-79
2021/12/10 00:43:28;;;;;;;22.75;12.05;;;15.30;67.70;;;;;;1989524;28;20383;-80
2021/12/10 00:44:27;;;;;;;27.33;11.60;;;15.30;67.90;;;;;;1990118;28;20175;-80
2021/12/10 00:45:26;;;;;;;23.07;11.43;;;15.20;68.70;;;;;;1989824;28;20957;-80
2021/12/10 00:46:25;;;;;;;21.67;12.20;;;15.30;68.10;;;;;;1989978;28;20186;-80
2021/12/10 00:47:24;;;;;;;24.93;11.97;;;15.20;67.40;;;;;;1990060;28;20178;-79
2021/12/10 00:48:23;;;;;;;22.60;12.25;;;15.20;67.40;;;;;;1989138;28;20202;-80
2021/12/10 00:49:22;;;;;;;23.50;12.73;;;15.20;67.00;;;;;;1989250;28;20645;-79
2021/12/10 00:50:28;;;;;;;20.03;10.83;;;15.20;66.90;;;;;;1989830;28;20629;-80
2021/12/10 00:51:27;;;;;;;21.60;11.13;;;15.50;67.20;;;;;;1989865;28;20209;-81
2021/12/10 00:52:26;;;;;;;23.77;12.40;;;15.20;66.90;;;;;;1989111;28;20182;-80
2021/12/10 00:53:25;;;;;;;21.08;11.00;;;15.20;66.90;;;;;;1989364;28;20489;-81
2021/12/10 00:54:23;;;;;;;27.37;13.30;;;15.30;67.10;;;;;;1989692;28;20189;-80
2021/12/10 00:55:24;;;;;;;23.67;11.90;;;15.30;67.70;;;;;;1989831;28;20176;-79
2021/12/10 00:56:23;;;;;;;24.38;12.50;;;15.20;68.50;;;;;;1989815;28;20534;-80
2021/12/10 00:57:22;;;;;;;25.33;12.60;;;15.20;66.70;;;;;;1989994;28;20256;-80
2021/12/10 00:58:22;;;;;;;24.90;12.07;;;15.20;65.80;;;;;;1990247;28;20402;-79
2021/12/10 00:59:20;;;;;;;25.85;12.60;;;15.20;65.40;;;;;;1990238;28;20170;-80
2021/12/10 01:00:30;;;;;;;27.80;12.53;;;15.20;65.50;;;;;;1990110;28;20195;-81
2021/12/10 01:01:31;;;;;;;25.60;13.05;;;15.30;65.60;;;;;;1989670;28;20186;-80
2021/12/10 01:02:29;;;;;;;20.98;11.13;;;15.20;65.40;;;;;;1989056;28;20182;-78
2021/12/10 01:03:40;;;;;;;25.03;12.60;;;15.20;65.10;;;;;;1989210;28;20202;-80
2021/12/10 01:04:43;;;;;;;27.65;12.95;;;15.20;65.20;;;;;;1990070;28;20162;-80
2021/12/10 01:05:45;;;;;;;26.83;12.38;;;15.20;65.40;;;;;;1989142;28;20178;-80
2021/12/10 01:06:46;;;;;;;25.20;12.13;;;15.20;65.50;;;;;;1988967;28;20557;-80
2021/12/10 01:07:46;;;;;;;23.80;11.43;;;15.20;65.10;;;;;;1981355;28;20620;-79
2021/12/10 01:08:50;;;;;;;20.92;11.60;;;15.20;65.20;;;;;;1989259;28;20178;-81
2021/12/10 01:09:51;;;;;;;19.17;11.13;;;15.20;65.30;;;;;;1989092;28;20606;-80
2021/12/10 01:10:57;;;;;;;20.92;11.88;;;15.20;65.50;;;;;;1988989;28;20174;-81
2021/12/10 01:12:10;;;;;;;21.80;10.93;;;15.20;65.40;;;;;;1981660;28;20227;-80
2021/12/10 01:13:14;;;;;;;25.10;12.90;;;15.10;65.30;;;;;;1989295;28;20163;-79
2021/12/10 01:14:24;;;;;;;28.20;12.23;;;15.10;65.30;;;;;;1989721;28;20634;-80
2021/12/10 01:15:45;;;;;;;27.80;11.48;;;15.20;65.50;;;;;;1989112;28;20504;-79
2021/12/10 01:27:23;;;;;;;25.52;11.82;;;15.10;65.50;;;;;;1989385;28;20218;-80
2021/12/10 01:28:23;;;;;;;22.63;11.55;;;15.10;65.60;;;;;;1988922;28;20259;-79
2021/12/10 01:29:28;;;;;;;23.67;11.85;;;15.10;65.50;;;;;;1988937;28;20531;-79
2021/12/10 01:30:31;;;;;;;22.85;11.85;;;15.10;65.50;;;;;;1989457;28;20167;-80
2021/12/10 01:31:29;;;;;;;22.90;11.65;;;15.10;65.60;;;;;;1988770;28;20186;-80
2021/12/10 01:32:32;;;;;;;25.60;12.07;;;15.10;65.90;;;;;;1988890;28;20611;-81
2021/12/10 01:33:30;;;;;;;21.45;12.55;;;15.10;65.90;;;;;;1988997;28;20163;-78
2021/12/10 01:34:29;;;;;;;25.87;12.50;;;15.10;65.70;;;;;;1989544;28;20166;-79
2021/12/10 01:35:37;;;;;;;26.87;11.80;;;15.20;65.80;;;;;;1989519;28;20167;-80
2021/12/10 01:36:37;;;;;;;22.75;12.00;;;15.10;65.90;;;;;;1989680;28;20788;-81
2021/12/10 01:37:36;;;;;;;18.00;10.38;;;15.10;66.00;;;;;;1989531;28;20174;-80
2021/12/10 01:38:41;;;;;;;25.93;11.80;;;15.10;66.10;;;;;;1989591;28;20185;-79
2021/12/10 01:39:42;;;;;;;25.15;12.55;;;15.10;66.20;;;;;;1989618;28;20166;-81
2021/12/10 01:40:44;;;;;;;19.73;11.18;;;15.10;66.30;;;;;;1989502;28;20183;-80
2021/12/10 01:41:53;;;;;;;21.83;11.45;;;15.10;66.40;;;;;;1989446;28;20182;-80
2021/12/10 01:42:54;;;;;;;23.30;12.27;;;15.10;66.50;;;;;;1988824;28;20670;-80
2021/12/10 01:44:00;;;;;;;22.70;11.07;;;15.20;66.90;;;;;;1988759;28;20182;-80
2021/12/10 01:45:04;;;;;;;21.85;10.65;;;15.40;67.90;;;;;;1988781;28;20220;-80
2021/12/10 01:46:11;;;;;;;23.02;12.25;;;15.10;69.60;;;;;;1988731;28;20206;-79
2021/12/10 01:47:12;;;;;;;22.65;11.32;;;15.10;68.10;;;;;;1989427;28;20167;-79
2021/12/10 01:48:14;;;;;;;20.60;10.65;;;15.10;66.80;;;;;;1989267;28;20201;-79
2021/12/10 01:49:14;;;;;;;24.45;12.70;;;15.10;66.90;;;;;;1989493;28;20274;-80
2021/12/10 01:50:13;;;;;;;26.05;12.55;;;15.10;67.20;;;;;;1988676;28;20206;-80
2021/12/10 01:51:23;;;;;;;27.00;13.23;;;15.10;67.60;;;;;;1988893;28;20179;-80
2021/12/10 01:52:22;;;;;;;25.27;12.05;;;15.00;68.00;;;;;;1989490;28;20900;-80
2021/12/10 01:53:26;;;;;;;24.43;11.10;;;15.00;68.90;;;;;;1989518;28;20198;-79
2021/12/10 01:54:31;;;;;;;20.00;10.63;;;15.00;68.00;;;;;;1989570;28;20174;-80
2021/12/10 01:55:32;;;;;;;22.05;12.20;;;15.00;68.40;;;;;;1989399;28;20249;-80
2021/12/10 01:56:33;;;;;;;23.60;10.52;;;15.00;69.20;;;;;;1989244;28;20276;-80
2021/12/10 01:57:37;;;;;;;22.20;11.45;;;15.00;68.30;;;;;;1989258;28;20174;-80
2021/12/10 01:58:36;;;;;;;20.60;11.50;;;15.00;67.60;;;;;;1989425;28;20606;-79
2021/12/10 01:59:37;;;;;;;21.20;12.23;;;15.00;67.80;;;;;;1989451;28;20182;-79
2021/12/10 02:00:39;;;;;;;23.17;11.55;;;15.00;68.50;;;;;;1989383;28;20655;-80
2021/12/10 02:01:42;;;;;;;22.98;11.50;;;15.00;67.60;;;;;;1989498;28;20253;-79
2021/12/10 02:02:45;;;;;;;26.02;12.38;;;15.00;67.90;;;;;;1989562;28;20229;-78
2021/12/10 02:03:45;;;;;;;20.13;11.32;;;15.00;68.50;;;;;;1988919;28;20273;-80
2021/12/10 02:04:45;;;;;;;18.95;10.65;;;15.10;69.20;;;;;;1988871;28;20215;-78
2021/12/10 02:05:45;;;;;;;24.00;11.90;;;15.10;71.30;;;;;;1989391;28;20182;-78
2021/12/10 02:06:44;;;;;;;19.85;10.77;;;15.10;70.60;;;;;;1989176;28;20194;-78
2021/12/10 02:07:44;;;;;;;24.00;11.43;;;15.10;72.30;;;;;;1988765;28;20182;-79
2021/12/10 02:08:44;;;;;;;22.25;12.18;;;15.10;78.70;;;;;;1980823;29;20218;-80
2021/12/10 02:09:43;;;;;;;25.83;12.23;;;15.10;79.60;;;;;;1988503;28;20173;-80
2021/12/10 02:10:43;;;;;;;21.57;11.17;;;15.20;74.20;;;;;;1989513;28;20673;-79
2021/12/10 02:11:43;;;;;;;19.92;10.93;;;15.20;74.40;;;;;;1988615;28;20250;-80
2021/12/10 02:12:42;;;;;;;19.35;10.60;;;15.30;75.30;;;;;;1988772;28;20567;-80
2021/12/10 02:13:42;;;;;;;23.67;11.60;;;15.20;76.20;;;;;;1989221;28;20575;-78
2021/12/10 02:14:41;;;;;;;18.63;10.90;;;15.10;74.20;;;;;;1988545;28;20186;-79
2021/12/10 02:15:39;;;;;;;27.40;11.97;;;15.10;72.90;;;;;;1980880;28;20195;-80
2021/12/10 02:16:38;;;;;;;31.90;11.57;;;15.10;72.00;;;;;;1988087;28;20422;-78
2021/12/10 02:17:40;;;;;;;26.77;12.00;;;15.10;70.70;;;;;;1989147;28;20177;-80
2021/12/10 02:18:39;;;;;;;23.65;11.65;;;15.20;71.80;;;;;;1989175;28;20819;-79
2021/12/10 02:19:39;;;;;;;23.07;11.83;;;15.10;72.60;;;;;;1989457;28;20190;-79
2021/12/10 02:21:02;;;;;;;23.83;11.43;;;15.10;73.40;;;;;;1988567;28;20213;-80
2021/12/10 02:22:02;;;;;;;26.05;12.95;;;15.10;73.90;;;;;;1983508;28;20167;-79
2021/12/10 02:23:05;;;;;;;24.13;11.90;;;15.10;74.20;;;;;;1988681;28;20213;-79
2021/12/10 02:24:04;;;;;;;26.98;11.45;;;15.10;74.20;;;;;;1989233;28;20246;-78
2021/12/10 02:25:05;;;;;;;25.58;12.50;;;15.10;69.40;;;;;;1989188;28;20193;-79
2021/12/10 02:26:07;;;;;;;26.35;11.45;;;15.10;68.80;;;;;;1989053;28;20175;-78
2021/12/10 02:27:08;;;;;;;25.02;11.98;;;15.10;68.80;;;;;;1989000;28;20226;-79
2021/12/10 02:28:09;;;;;;;22.65;12.23;;;15.10;68.50;;;;;;1988433;28;20184;-79
2021/12/10 02:29:08;;;;;;;21.48;12.05;;;15.10;68.80;;;;;;1988630;28;20184;-79
2021/12/10 02:30:11;;;;;;;26.02;11.05;;;15.10;68.60;;;;;;1988500;28;20633;-79
2021/12/10 02:31:12;;;;;;;23.33;11.55;;;15.10;68.40;;;;;;1988476;28;20175;-80
2021/12/10 02:32:11;;;;;;;22.00;11.60;;;15.20;69.30;;;;;;1988691;28;20174;-80
2021/12/10 02:33:10;;;;;;;24.70;12.73;;;15.10;69.00;;;;;;1988423;28;20202;-79
2021/12/10 02:34:09;;;;;;;21.10;11.20;;;15.20;70.20;;;;;;1988680;28;20184;-80
2021/12/10 02:35:11;;;;;;;24.77;11.37;;;15.20;69.90;;;;;;1989124;28;20194;-80
2021/12/10 02:36:12;;;;;;;17.77;10.02;;;15.20;71.10;;;;;;1989081;28;20596;-81
2021/12/10 02:37:10;;;;;;;24.40;12.15;;;15.10;71.10;;;;;;1988430;28;20633;-79
2021/12/10 02:38:09;;;;;;;21.23;10.63;;;15.20;71.30;;;;;;1988633;28;20174;-80
2021/12/10 02:39:12;;;;;;;23.43;11.70;;;15.20;71.90;;;;;;1988082;28;20340;-80
2021/12/10 02:40:14;;;;;;;24.67;12.65;;;15.20;72.20;;;;;;1988383;28;20174;-79
2021/12/10 02:41:15;;;;;;;18.60;10.68;;;15.20;72.10;;;;;;1989177;28;20605;-79
2021/12/10 02:42:14;;;;;;;21.90;11.45;;;15.20;74.10;;;;;;1989072;28;20175;-80
2021/12/10 02:43:14;;;;;;;22.73;11.77;;;15.20;74.50;;;;;;1988547;28;20186;-79
2021/12/10 02:44:16;;;;;;;18.38;11.52;;;15.40;76.00;;;;;;1988402;28;20257;-79
2021/12/10 02:45:17;;;;;;;22.00;11.57;;;15.20;74.60;;;;;;1989031;28;20189;-80
2021/12/10 02:46:16;;;;;;;21.77;11.65;;;15.20;74.10;;;;;;1989106;28;20257;-79
2021/12/10 02:47:16;;;;;;;24.98;11.20;;;15.20;72.80;;;;;;1989053;28;20321;-79
2021/12/10 02:48:15;;;;;;;24.33;11.90;;;15.30;73.00;;;;;;1989078;28;20206;-79
2021/12/10 02:49:14;;;;;;;22.27;11.90;;;15.30;73.20;;;;;;1989008;28;20178;-80
2021/12/10 02:50:15;;;;;;;23.27;12.33;;;15.30;74.00;;;;;;1989124;28;20438;-79
2021/12/10 02:51:14;;;;;;;25.23;11.57;;;15.20;74.90;;;;;;1989011;28;20421;-79
2021/12/10 02:52:14;;;;;;;20.37;12.20;;;15.30;75.70;;;;;;1988594;28;20178;-80
2021/12/10 02:53:16;;;;;;;22.48;12.25;;;15.20;76.30;;;;;;1980620;28;20970;-79
2021/12/10 02:54:21;;;;;;;24.92;12.13;;;15.30;76.90;;;;;;1980575;29;20588;-79
2021/12/10 02:55:20;;;;;;;24.83;11.75;;;15.20;82.30;;;;;;1988549;28;20247;-79
2021/12/10 02:56:21;;;;;;;27.40;12.52;;;15.30;76.20;;;;;;1988984;28;20201;-79
2021/12/10 02:57:20;;;;;;;26.90;13.57;;;15.30;73.80;;;;;;1989116;28;20171;-80
2021/12/10 02:58:19;;;;;;;23.58;11.10;;;15.30;77.20;;;;;;1990589;28;20174;-79
2021/12/10 02:59:18;;;;;;;22.25;11.68;;;15.30;77.90;;;;;;1990677;28;20174;-79
2021/12/10 03:00:22;;;;;;;22.47;12.23;;;15.30;75.60;;;;;;1990695;28;20646;-78
2021/12/10 03:01:32;;;;;;;24.23;11.57;;;15.30;77.70;;;;;;1990612;28;20422;-80
2021/12/10 03:02:31;;;;;;;25.52;11.68;;;15.30;76.40;;;;;;1989932;28;20512;-80
2021/12/10 03:03:29;;;;;;;24.27;11.70;;;15.30;77.60;;;;;;1989888;28;20277;-80
2021/12/10 03:04:29;;;;;;;20.47;11.10;;;15.30;79.20;;;;;;1982279;28;20179;-78
2021/12/10 03:05:28;;;;;;;22.02;11.48;;;15.30;79.60;;;;;;1989578;28;20197;-79
2021/12/10 03:06:28;;;;;;;23.03;11.27;;;15.30;80.20;;;;;;1990553;28;20205;-79
2021/12/10 03:07:27;;;;;;;17.52;9.73;;;15.30;85.80;;;;;;1990629;28;20175;-79
2021/12/10 03:08:26;;;;;;;25.93;13.10;;;15.30;73.10;;;;;;1990486;28;20220;-79
2021/12/10 03:09:25;;;;;;;24.50;11.33;;;15.30;78.30;;;;;;1989885;28;20174;-78
2021/12/10 03:10:29;;;;;;;24.63;11.77;;;15.30;73.80;;;;;;1989887;28;20174;-79
2021/12/10 03:11:30;;;;;;;23.83;12.32;;;15.30;73.70;;;;;;1990600;28;20193;-78
2021/12/10 03:12:31;;;;;;;21.25;10.68;;;15.30;73.90;;;;;;1989819;28;20170;-78
2021/12/10 03:13:30;;;;;;;20.73;10.75;;;15.30;77.30;;;;;;1989877;28;20185;-78
2021/12/10 03:14:31;;;;;;;23.13;12.37;;;;;;;;;;1989994;28;20178;-78
2021/12/10 03:15:30;;;;;;;20.10;11.38;;;15.30;68.80;;;;;;1990595;28;20441;-78
2021/12/10 03:16:29;;;;;;;21.40;10.65;;;15.30;73.40;;;;;;1989757;28;20249;-78
2021/12/10 03:17:30;;;;;;;25.67;13.10;;;15.10;72.00;;;;;;1989980;28;20305;-78
2021/12/10 03:18:29;;;;;;;24.60;12.38;;;15.20;72.40;;;;;;1990531;28;20174;-79
2021/12/10 03:19:28;;;;;;;21.50;10.80;;;;;;;;;;1990360;28;20583;-80
2021/12/10 03:20:30;;;;;;;18.95;10.57;;;15.20;78.70;;;;;;1990436;28;20638;-80
2021/12/10 03:21:29;;;;;;;18.48;9.95;;;15.20;78.00;;;;;;1989992;28;20178;-80
2021/12/10 03:22:28;;;;;;;17.13;10.33;;;15.20;67.90;;;;;;1989991;28;20182;-79
2021/12/10 03:23:27;;;;;;;21.27;12.07;;;15.20;69.00;;;;;;1990362;28;20226;-80
2021/12/10 03:24:28;;;;;;;23.37;10.57;;;15.20;70.00;;;;;;1989827;28;20233;-80
2021/12/10 03:25:27;;;;;;;23.73;12.68;;;15.20;74.70;;;;;;1989790;28;20174;-79
2021/12/10 03:26:25;;;;;;;19.87;10.40;;;15.10;71.90;;;;;;1989794;28;20212;-79
2021/12/10 03:27:25;;;;;;;18.20;10.73;;;15.20;76.20;;;;;;1990245;28;20971;-80
2021/12/10 03:28:24;;;;;;;23.17;11.25;;;15.30;74.00;;;;;;1990403;28;20202;-79
2021/12/10 03:29:25;;;;;;;19.20;10.40;;;15.20;74.20;;;;;;1990525;28;20254;-79
2021/12/10 03:30:27;;;;;;;22.88;11.57;;;15.20;73.50;;;;;;1990369;28;20174;-80
2021/12/10 03:31:28;;;;;;;19.10;10.90;;;;;;;;;;1990339;28;20250;-79
2021/12/10 03:32:30;;;;;;;22.02;11.30;;;15.30;65.10;;;;;;1990350;28;20178;-80
2021/12/10 03:33:29;;;;;;;21.45;10.90;;;15.40;64.80;;;;;;1990404;28;20633;-79
2021/12/10 03:34:30;;;;;;;17.90;9.80;;;15.30;64.50;;;;;;1990193;28;20534;-80
2021/12/10 03:35:33;;;;;;;19.83;10.50;;;15.20;64.20;;;;;;1990305;28;20189;-80
2021/12/10 03:36:31;;;;;;;20.90;10.73;;;15.30;64.90;;;;;;1990350;28;20242;-80
2021/12/10 03:37:30;;;;;;;24.40;11.97;;;15.20;65.00;;;;;;1989657;28;20265;-79
2021/12/10 03:38:29;;;;;;;24.40;11.13;;;15.20;65.70;;;;;;1989730;28;20262;-79
2021/12/10 03:39:28;;;;;;;18.45;11.40;;;15.20;64.70;;;;;;1990339;28;20174;-80
2021/12/10 03:40:27;;;;;;;22.05;11.57;;;15.40;65.20;;;;;;1990314;28;20174;-79
2021/12/10 03:41:25;;;;;;;20.87;11.13;;;15.20;64.90;;;;;;1989620;28;20642;-80
2021/12/10 03:42:24;;;;;;;19.30;11.77;;;15.20;65.00;;;;;;1989858;28;20170;-79
2021/12/10 03:43:23;;;;;;;20.53;11.00;;;15.20;65.30;;;;;;1989636;28;20171;-80
2021/12/10 03:44:22;;;;;;;26.27;11.20;;;15.20;65.40;;;;;;1989761;28;20175;-79
2021/12/10 03:45:20;;;;;;;18.65;10.80;;;15.20;65.50;;;;;;1990328;28;20841;-79
2021/12/10 03:46:20;;;;;;;18.67;11.00;;;15.20;65.60;;;;;;1990244;28;20341;-80
2021/12/10 03:47:18;;;;;;;19.00;11.00;;;15.20;65.70;;;;;;1990219;28;20189;-80
2021/12/10 03:48:22;;;;;;;23.60;12.50;;;15.20;65.90;;;;;;1990228;28;20203;-79
2021/12/10 03:49:21;;;;;;;21.45;11.13;;;15.20;66.10;;;;;;1990378;28;20644;-80
2021/12/10 03:50:28;;;;;;;20.47;11.90;;;15.20;66.40;;;;;;1990217;28;20198;-79
2021/12/10 03:51:27;;;;;;;20.80;11.35;;;15.20;66.30;;;;;;1990307;28;20386;-80
2021/12/10 03:52:25;;;;;;;19.00;10.73;;;15.20;66.40;;;;;;1990146;28;20512;-79
2021/12/10 03:53:24;;;;;;;21.93;10.47;;;15.20;66.60;;;;;;1990268;28;20238;-80
2021/12/10 03:54:23;;;;;;;19.97;11.17;;;15.20;67.10;;;;;;1990207;28;20599;-80
2021/12/10 03:55:23;;;;;;;23.03;11.70;;;15.20;68.40;;;;;;1990382;28;20434;-80
2021/12/10 03:56:25;;;;;;;15.82;10.13;;;15.10;69.80;;;;;;1989693;28;20437;-79
2021/12/10 03:57:24;;;;;;;20.77;12.07;;;15.20;70.90;;;;;;1989688;28;20234;-80
2021/12/10 03:58:23;;;;;;;23.57;11.00;;;15.10;78.10;;;;;;1990385;28;20261;-80
2021/12/10 03:59:23;;;;;;;20.83;11.50;;;15.10;69.80;;;;;;1990400;28;20186;-79
2021/12/10 04:00:27;;;;;;;23.10;10.43;;;15.10;68.20;;;;;;1990565;28;20406;-79
2021/12/10 04:01:29;;;;;;;18.80;11.20;;;15.10;68.30;;;;;;1989559;28;20182;-78
2021/12/10 04:02:28;;;;;;;18.17;9.70;;;15.30;68.20;;;;;;1989679;28;20202;-80
2021/12/10 04:03:30;;;;;;;17.67;9.50;;;15.20;69.50;;;;;;1990274;28;20209;-79
2021/12/10 04:04:34;;;;;;;16.75;10.43;;;15.10;72.20;;;;;;1990592;28;20175;-79
2021/12/10 04:05:33;;;;;;;17.33;10.45;;;15.10;73.00;;;;;;1989571;28;20210;-80
2021/12/10 04:06:33;;;;;;;19.15;10.65;;;15.10;71.70;;;;;;1989708;28;20201;-80
2021/12/10 04:07:32;;;;;;;19.17;9.65;;;15.10;69.90;;;;;;1990223;28;20178;-79
2021/12/10 04:08:30;;;;;;;18.70;9.90;;;15.10;73.40;;;;;;1990119;28;20197;-79
2021/12/10 04:09:29;;;;;;;22.20;10.77;;;15.10;73.60;;;;;;1990139;28;20167;-79
2021/12/10 04:10:28;;;;;;;20.53;10.50;;;15.30;75.30;;;;;;1990204;28;20398;-80
2021/12/10 04:11:28;;;;;;;19.43;10.53;;;15.10;76.80;;;;;;1990113;28;20221;-80
2021/12/10 04:12:26;;;;;;;20.80;10.55;;;15.10;75.10;;;;;;1990160;28;20903;-79
2021/12/10 04:13:25;;;;;;;18.20;9.80;;;15.10;70.10;;;;;;1990161;28;20197;-80
2021/12/10 04:14:24;;;;;;;21.10;11.33;;;15.10;71.30;;;;;;1989434;28;20261;-79
2021/12/10 04:15:23;;;;;;;16.17;10.23;;;15.10;71.80;;;;;;1989473;28;20587;-80
2021/12/10 04:16:23;;;;;;;18.42;10.85;;;15.10;72.10;;;;;;1989714;28;20187;-80
2021/12/10 04:17:23;;;;;;;22.65;11.82;;;15.10;74.00;;;;;;1990094;28;20189;-80
2021/12/10 04:18:22;;;;;;;17.73;9.57;;;15.10;80.00;;;;;;1990109;28;20254;-79
2021/12/10 04:19:21;;;;;;;21.98;10.68;;;15.10;75.50;;;;;;1990326;28;20208;-80
2021/12/10 04:20:24;;;;;;;20.95;11.48;;;15.10;69.50;;;;;;1989350;28;20240;-80
2021/12/10 04:21:24;;;;;;;21.05;10.70;;;15.10;70.90;;;;;;1989602;28;20222;-80
2021/12/10 04:22:25;;;;;;;21.73;9.93;;;15.10;70.70;;;;;;1990173;28;20546;-79
2021/12/10 04:23:24;;;;;;;22.48;10.60;;;15.10;70.60;;;;;;1990135;28;20181;-79
2021/12/10 04:24:24;;;;;;;22.63;10.75;;;15.10;73.00;;;;;;1990098;28;20257;-79
2021/12/10 04:25:24;;;;;;;17.00;10.30;;;14.30;72.50;;;;;;1990230;28;20177;-80
2021/12/10 04:26:25;;;;;;;21.20;10.07;;;15.10;68.20;;;;;;1990166;28;20236;-80
2021/12/10 04:27:24;;;;;;;18.08;10.70;;;15.10;69.10;;;;;;1989905;28;20292;-80
2021/12/10 04:28:23;;;;;;;19.67;9.83;;;15.10;68.90;;;;;;1990031;28;20272;-79
2021/12/10 04:29:22;;;;;;;21.10;10.73;;;15.10;68.80;;;;;;1989947;28;20504;-79
2021/12/10 04:30:21;;;;;;;22.30;11.10;;;15.10;68.80;;;;;;1990071;28;20408;-78
2021/12/10 04:31:19;;;;;;;21.27;10.35;;;15.10;68.80;;;;;;1990039;28;20398;-79
2021/12/10 04:32:18;;;;;;;15.60;9.40;;;15.10;68.30;;;;;;1989999;28;20646;-80
2021/12/10 04:33:22;;;;;;;19.30;10.17;;;15.10;68.60;;;;;;1990088;28;20182;-79
2021/12/10 04:34:22;;;;;;;18.20;10.50;;;15.10;68.90;;;;;;1990289;28;20229;-79
2021/12/10 04:35:20;;;;;;;21.20;10.95;;;15.10;68.90;;;;;;1989385;28;20265;-79
2021/12/10 04:36:19;;;;;;;16.20;9.60;;;15.10;68.80;;;;;;1981569;28;20191;-80
2021/12/10 04:37:18;;;;;;;20.00;10.40;;;15.10;68.70;;;;;;1989035;28;20170;-78
2021/12/10 04:38:17;;;;;;;18.17;10.20;;;15.10;68.80;;;;;;1989977;28;20262;-79
2021/12/10 04:39:17;;;;;;;19.58;9.95;;;15.10;68.70;;;;;;1990001;28;20645;-80
2021/12/10 04:40:18;;;;;;;16.65;9.32;;;15.10;68.70;;;;;;1989163;28;20190;-79
2021/12/10 04:41:17;;;;;;;21.52;10.60;;;15.10;69.60;;;;;;1989347;28;20174;-78
2021/12/10 04:42:20;;;;;;;21.70;10.77;;;15.20;69.20;;;;;;1990065;28;20192;-79
2021/12/10 04:43:22;;;;;;;19.10;9.85;;;15.10;68.90;;;;;;1989392;28;20166;-79
2021/12/10 04:44:20;;;;;;;16.80;10.15;;;15.10;68.80;;;;;;1989389;28;20241;-78
2021/12/10 04:45:19;;;;;;;22.43;11.23;;;15.10;69.00;;;;;;1989922;28;20207;-79
2021/12/10 04:46:18;;;;;;;21.57;10.63;;;15.10;69.10;;;;;;1989839;28;20194;-80
2021/12/10 04:47:17;;;;;;;16.33;8.93;;;15.10;69.00;;;;;;1990008;28;20414;-80
2021/12/10 04:48:15;;;;;;;17.87;9.60;;;15.10;68.90;;;;;;1989940;28;20206;-79
2021/12/10 04:49:17;;;;;;;16.67;9.50;;;15.10;69.00;;;;;;1989989;28;20180;-79
2021/12/10 04:50:18;;;;;;;18.23;10.50;;;15.10;69.00;;;;;;1989902;28;20738;-79
2021/12/10 04:51:18;;;;;;;15.82;9.75;;;15.10;69.50;;;;;;1990013;28;20178;-79
2021/12/10 04:52:17;;;;;;;16.33;10.02;;;15.10;69.90;;;;;;1989760;28;20178;-79
2021/12/10 04:53:15;;;;;;;18.23;9.43;;;15.10;70.30;;;;;;1989953;28;20535;-80
2021/12/10 04:54:16;;;;;;;16.47;10.17;;;15.10;70.90;;;;;;1989948;28;20665;-80
2021/12/10 04:55:16;;;;;;;22.77;12.07;;;15.20;74.70;;;;;;1989828;28;20189;-79
2021/12/10 04:56:16;;;;;;;16.48;9.32;;;15.10;78.30;;;;;;1990000;28;20203;-79
2021/12/10 04:57:16;;;;;;;18.23;9.13;;;15.10;80.60;;;;;;1989950;28;20186;-79
2021/12/10 04:58:15;;;;;;;19.90;10.13;;;15.10;78.30;;;;;;1989117;28;20179;-79
2021/12/10 04:59:16;;;;;;;17.63;9.85;;;15.10;77.50;;;;;;1989206;28;20565;-79
2021/12/10 05:00:21;;;;;;;14.57;9.57;;;15.10;79.60;;;;;;1989859;28;20222;-80
2021/12/10 05:01:19;;;;;;;24.67;9.60;;;15.10;75.10;;;;;;1989916;28;20564;-80
2021/12/10 05:02:18;;;;;;;17.93;8.67;;;15.20;79.10;;;;;;1989783;28;20197;-80
2021/12/10 05:03:17;;;;;;;15.83;8.70;;;15.10;76.00;;;;;;1990076;28;20185;-79
2021/12/10 05:04:16;;;;;;;15.43;9.10;;;;;;;;;;1989960;28;20452;-79
2021/12/10 05:05:15;;;;;;;20.33;9.20;;;15.00;76.60;;;;;;1989866;28;20198;-81
2021/12/10 05:06:14;;;;;;;21.25;10.02;;;15.10;79.30;;;;;;1989762;28;20488;-81
2021/12/10 05:07:15;;;;;;;15.87;9.90;;;15.00;79.40;;;;;;1989871;28;20178;-79
2021/12/10 05:08:14;;;;;;;16.13;9.80;;;15.00;70.60;;;;;;1989771;28;20181;-80
2021/12/10 05:09:13;;;;;;;18.95;10.25;;;15.00;71.70;;;;;;1989926;28;20233;-80
2021/12/10 05:10:15;;;;;;;19.77;9.98;;;15.00;77.50;;;;;;1989158;28;20182;-80
2021/12/10 05:11:14;;;;;;;16.02;9.93;;;15.00;77.20;;;;;;1989203;28;20171;-80
2021/12/10 05:12:13;;;;;;;14.63;8.50;;;15.00;76.60;;;;;;1989826;28;20211;-80
2021/12/10 05:13:11;;;;;;;18.80;9.00;;;15.00;77.00;;;;;;1989681;28;20434;-80
2021/12/10 05:14:11;;;;;;;19.63;9.63;;;15.10;75.60;;;;;;1989949;28;20230;-81
2021/12/10 05:15:13;;;;;;;19.23;9.95;;;15.00;78.90;;;;;;1989872;28;20179;-80
2021/12/10 05:16:13;;;;;;;13.70;8.80;;;15.10;75.70;;;;;;1989764;28;20583;-80
2021/12/10 05:17:12;;;;;;;16.75;9.40;;;15.10;77.30;;;;;;1989530;28;20186;-80
2021/12/10 05:18:13;;;;;;;21.90;8.83;;;;;;;;;;1989827;28;20258;-79
2021/12/10 05:19:14;;;;;;;17.05;9.65;;;;;;;;;;1989696;28;20650;-80
2021/12/10 05:20:17;;;;;;;16.17;10.07;;;15.20;72.10;;;;;;1989517;28;20163;-80
2021/12/10 05:21:16;;;;;;;17.60;9.07;;;15.10;75.00;;;;;;1989833;28;20628;-80
2021/12/10 05:22:15;;;;;;;15.93;8.70;;;15.10;78.10;;;;;;1989776;28;20170;-80